Time;durP1;ratioP1;P1;durP2;ratioP2;P2;SDS_P1;SDS_P2;PMS_P1;PMS_P2;Temp;Humidity;BMP_temperature;BMP_pressure;BME280_temperature;BME280_humidity;BME280_pressure;Samples;Min_cycle;Max_cycle;Signal;HPM_P1;HPM_P2
2023/10/15 00:00:46;;;;;;;0.00;0.00;;;8.60;80.80;;;;;;5072394;28;20041;-66
2023/10/15 00:03:11;;;;;;;0.00;0.00;;;8.60;80.90;;;;;;5071193;28;20048;-65
2023/10/15 00:05:37;;;;;;;0.40;0.40;;;8.70;80.60;;;;;;5070358;28;20051;-66
2023/10/15 00:08:03;;;;;;;0.00;0.00;;;8.70;80.40;;;;;;5071304;28;20048;-66
2023/10/15 00:10:30;;;;;;;0.00;0.00;;;8.80;80.00;;;;;;5071405;28;20173;-66
2023/10/15 00:12:57;;;;;;;0.00;0.00;;;8.80;80.10;;;;;;5051417;28;20052;-65
2023/10/15 00:15:25;;;;;;;0.00;0.00;;;8.80;80.50;;;;;;5063210;28;20515;-66
2023/10/15 00:17:58;;;;;;;0.00;0.00;;;8.80;80.50;;;;;;5071152;28;20044;-66
2023/10/15 00:20:26;;;;;;;0.00;0.00;;;8.90;80.60;;;;;;5070935;28;20049;-65
2023/10/15 00:22:52;;;;;;;0.00;0.00;;;8.90;81.00;;;;;;5071365;28;20120;-67
2023/10/15 00:25:19;;;;;;;0.00;0.00;;;8.90;81.30;;;;;;5070117;28;20129;-66
2023/10/15 00:27:52;;;;;;;0.00;0.00;;;8.90;80.80;;;;;;5071380;28;20105;-67
2023/10/15 00:30:19;;;;;;;0.10;0.10;;;8.90;81.50;;;;;;5069178;28;20119;-68
2023/10/15 00:32:45;;;;;;;0.10;0.10;;;8.90;81.40;;;;;;5070859;28;20044;-66
2023/10/15 00:35:13;;;;;;;0.00;0.00;;;8.80;81.60;;;;;;5070223;28;20044;-66
2023/10/15 00:37:51;;;;;;;0.00;0.00;;;8.90;81.60;;;;;;5070842;28;20129;-66
2023/10/15 00:40:19;;;;;;;0.00;0.00;;;8.80;81.80;;;;;;5069999;28;20087;-67
2023/10/15 00:42:45;;;;;;;0.00;0.00;;;8.80;81.70;;;;;;5070120;28;20127;-66
2023/10/15 00:45:15;;;;;;;0.82;0.82;;;8.80;80.90;;;;;;5069861;28;20400;-66
2023/10/15 00:47:42;;;;;;;0.00;0.00;;;8.80;80.70;;;;;;5070871;28;20054;-66
2023/10/15 00:50:09;;;;;;;0.00;0.00;;;8.80;80.20;;;;;;5070317;28;20044;-66
2023/10/15 00:52:42;;;;;;;0.00;0.00;;;8.80;80.20;;;;;;5070281;28;20174;-65
2023/10/15 00:55:16;;;;;;;0.00;0.00;;;8.90;80.20;;;;;;5070128;28;20141;-67
2023/10/15 00:57:45;;;;;;;0.00;0.00;;;8.80;80.30;;;;;;5057430;28;20033;-67
2023/10/15 01:02:56;;;;;;;0.52;0.52;;;8.80;80.40;;;;;;5070188;28;20044;-68
2023/10/15 01:05:25;;;;;;;0.10;0.10;;;8.90;80.20;;;;;;5070239;28;20068;-66
2023/10/15 01:07:51;;;;;;;0.00;0.00;;;8.80;80.10;;;;;;5070542;28;20105;-67
2023/10/15 01:10:29;;;;;;;0.00;0.00;;;8.80;79.10;;;;;;5069633;28;20055;-67
2023/10/15 01:12:56;;;;;;;0.00;0.00;;;8.80;78.30;;;;;;5070153;28;20049;-66
2023/10/15 01:15:22;;;;;;;0.00;0.00;;;8.80;77.70;;;;;;5070033;28;20496;-67
2023/10/15 01:17:53;;;;;;;0.00;0.00;;;8.90;78.00;;;;;;5054188;28;20048;-67
2023/10/15 01:20:19;;;;;;;0.00;0.00;;;8.80;77.10;;;;;;5066247;28;20059;-67
2023/10/15 01:22:45;;;;;;;0.00;0.00;;;8.70;77.50;;;;;;5069276;28;20052;-67
2023/10/15 01:25:24;;;;;;;0.00;0.00;;;8.70;77.30;;;;;;5069413;28;20067;-66
2023/10/15 01:27:54;;;;;;;0.15;0.15;;;8.70;77.50;;;;;;5062429;28;20060;-67
2023/10/15 01:30:24;;;;;;;0.65;0.65;;;8.70;77.10;;;;;;5068872;28;20048;-67
2023/10/15 01:32:50;;;;;;;0.00;0.00;;;8.70;77.00;;;;;;5069537;28;20511;-67
2023/10/15 01:35:19;;;;;;;0.00;0.00;;;8.70;77.10;;;;;;5069204;28;20075;-67
2023/10/15 01:37:57;;;;;;;0.30;0.30;;;8.60;76.60;;;;;;5068210;28;20083;-67
2023/10/15 01:40:37;;;;;;;0.00;0.00;;;8.60;75.90;;;;;;5069473;28;20044;-66
2023/10/15 01:43:08;;;;;;;0.00;0.00;;;8.70;75.70;;;;;;5049783;28;20056;-66
2023/10/15 01:45:38;;;;;;;0.00;0.00;;;8.60;74.20;;;;;;5054055;28;20440;-67
2023/10/15 01:50:34;;;;;;;0.00;0.00;;;8.70;73.50;;;;;;5065310;28;20044;-66
2023/10/15 01:53:04;;;;;;;0.15;0.15;;;8.60;72.90;;;;;;5069498;28;20048;-66
2023/10/15 01:55:30;;;;;;;0.00;0.00;;;8.70;73.90;;;;;;5068684;28;20048;-66
2023/10/15 01:58:03;;;;;;;0.00;0.00;;;8.70;74.10;;;;;;5068807;28;20036;-66
2023/10/15 02:00:43;;;;;;;0.00;0.00;;;8.70;74.00;;;;;;5068753;28;20048;-67
2023/10/15 02:03:12;;;;;;;0.00;0.00;;;8.60;74.60;;;;;;5069454;28;20040;-66
2023/10/15 02:05:41;;;;;;;0.00;0.00;;;8.60;74.80;;;;;;5069720;28;20068;-66
2023/10/15 02:08:14;;;;;;;0.00;0.00;;;8.50;74.10;;;;;;5068696;28;20447;-67
2023/10/15 02:10:47;;;;;;;0.00;0.00;;;8.50;73.70;;;;;;5068807;28;20199;-66
2023/10/15 02:13:16;;;;;;;0.00;0.00;;;8.50;73.40;;;;;;5068960;28;20046;-66
2023/10/15 02:15:43;;;;;;;0.00;0.00;;;8.40;73.60;;;;;;5049329;28;20033;-67
2023/10/15 02:18:19;;;;;;;0.00;0.00;;;8.50;74.00;;;;;;5053891;28;20045;-67
2023/10/15 02:20:47;;;;;;;0.10;0.10;;;8.40;74.00;;;;;;5068120;28;20520;-67
2023/10/15 02:23:18;;;;;;;0.00;0.00;;;8.40;74.50;;;;;;5068981;28;20055;-67
2023/10/15 02:25:48;;;;;;;0.00;0.00;;;8.20;75.00;;;;;;5069286;28;20048;-67
2023/10/15 02:28:20;;;;;;;0.10;0.10;;;8.30;75.60;;;;;;5069068;28;20471;-67
2023/10/15 02:30:48;;;;;;;0.10;0.10;;;8.20;76.20;;;;;;5068324;28;20036;-66
2023/10/15 02:33:17;;;;;;;0.00;0.00;;;8.20;76.80;;;;;;5068922;28;20048;-66
2023/10/15 02:35:45;;;;;;;0.00;0.00;;;8.20;77.20;;;;;;5068522;28;20040;-66
2023/10/15 02:38:12;;;;;;;0.03;0.03;;;8.10;77.30;;;;;;5068876;28;20070;-67
2023/10/15 02:40:58;;;;;;;0.00;0.00;;;8.10;77.50;;;;;;5068422;28;20093;-66
2023/10/15 02:43:27;;;;;;;0.10;0.10;;;8.10;77.40;;;;;;5068626;28;20052;-67
2023/10/15 02:45:53;;;;;;;0.10;0.10;;;8.10;77.50;;;;;;5068848;28;20040;-67
2023/10/15 02:48:20;;;;;;;0.10;0.10;;;8.10;78.00;;;;;;5068337;28;20105;-66
2023/10/15 02:51:01;;;;;;;1.38;1.27;;;8.00;78.70;;;;;;5067948;28;20546;-66
2023/10/15 02:53:33;;;;;;;0.10;0.10;;;7.90;78.50;;;;;;5066517;28;20080;-67
2023/10/15 02:55:59;;;;;;;0.00;0.00;;;8.00;78.80;;;;;;5057673;28;20098;-66
2023/10/15 02:58:28;;;;;;;0.00;0.00;;;7.90;79.20;;;;;;5068893;28;20052;-65
2023/10/15 03:00:59;;;;;;;0.00;0.00;;;7.80;79.30;;;;;;5068228;28;20526;-65
2023/10/15 03:03:33;;;;;;;0.00;0.00;;;7.80;79.30;;;;;;5071345;28;20128;-64
2023/10/15 03:06:00;;;;;;;0.00;0.00;;;7.90;79.30;;;;;;5072804;28;20484;-64
2023/10/15 03:08:31;;;;;;;0.00;0.00;;;7.80;79.50;;;;;;5072119;28;20051;-65
2023/10/15 03:11:11;;;;;;;0.00;0.00;;;7.80;79.40;;;;;;5072403;28;20067;-65
2023/10/15 03:13:49;;;;;;;0.00;0.00;;;7.90;79.30;;;;;;5071888;28;20098;-65
2023/10/15 03:16:16;;;;;;;0.00;0.00;;;7.90;79.20;;;;;;5072695;28;20045;-65
2023/10/15 03:18:42;;;;;;;0.00;0.00;;;7.80;79.20;;;;;;5071466;28;20107;-65
2023/10/15 03:21:16;;;;;;;0.00;0.00;;;7.90;79.10;;;;;;5071935;28;20144;-65
2023/10/15 03:23:42;;;;;;;0.00;0.00;;;8.00;79.30;;;;;;5072100;28;20059;-65
2023/10/15 03:26:17;;;;;;;0.00;0.00;;;7.90;79.30;;;;;;5071739;28;20044;-65
2023/10/15 03:28:45;;;;;;;0.00;0.00;;;8.00;79.20;;;;;;5070709;28;20066;-65
2023/10/15 03:31:14;;;;;;;0.05;0.05;;;8.00;79.60;;;;;;5071830;28;20052;-66
2023/10/15 03:33:41;;;;;;;0.00;0.00;;;8.00;79.50;;;;;;5072180;28;20047;-67
2023/10/15 03:36:12;;;;;;;0.03;0.03;;;8.00;79.60;;;;;;5071876;28;20048;-66
2023/10/15 03:38:38;;;;;;;0.03;0.03;;;8.00;79.50;;;;;;5071834;28;20097;-67
2023/10/15 03:41:21;;;;;;;0.25;0.25;;;8.00;79.80;;;;;;5071643;28;20044;-66
2023/10/15 03:43:48;;;;;;;0.00;0.00;;;8.00;79.80;;;;;;5071994;28;20768;-66
2023/10/15 03:46:19;;;;;;;0.00;0.00;;;8.10;80.00;;;;;;5071335;28;20090;-66
2023/10/15 03:48:47;;;;;;;0.00;0.00;;;8.10;80.00;;;;;;5070854;28;20127;-65
2023/10/15 03:51:16;;;;;;;0.00;0.00;;;8.20;80.00;;;;;;5071901;28;20037;-65
2023/10/15 03:53:43;;;;;;;0.00;0.00;;;8.20;80.00;;;;;;5071714;28;20044;-65
2023/10/15 03:56:09;;;;;;;0.00;0.00;;;8.10;80.50;;;;;;5071255;28;20145;-66
2023/10/15 03:58:34;;;;;;;0.00;0.00;;;8.10;80.40;;;;;;5071357;28;20127;-64
2023/10/15 04:01:16;;;;;;;0.00;0.00;;;8.00;80.70;;;;;;5070821;28;20131;-65
2023/10/15 04:03:48;;;;;;;;;;;7.90;81.10;;;;;;5069946;28;20045;-66
2023/10/15 04:06:18;;;;;;;0.00;0.00;;;8.00;81.00;;;;;;5071453;28;20386;-65
2023/10/15 04:11:30;;;;;;;0.05;0.05;;;7.90;81.50;;;;;;5071212;28;20043;-66
2023/10/15 04:16:57;;;;;;;0.00;0.00;;;7.90;81.20;;;;;;5048126;28;20049;-66
2023/10/15 04:19:25;;;;;;;0.00;0.00;;;7.90;80.90;;;;;;5059334;28;20429;-66
2023/10/15 04:22:09;;;;;;;0.00;0.00;;;7.90;81.10;;;;;;5069513;28;20056;-66
2023/10/15 04:24:46;;;;;;;0.10;0.10;;;7.80;82.00;;;;;;5071077;28;20048;-67
2023/10/15 04:27:16;;;;;;;0.00;0.00;;;7.90;82.80;;;;;;5071156;28;20036;-66
2023/10/15 04:29:49;;;;;;;0.00;0.00;;;7.80;83.20;;;;;;5071064;28;20068;-66
2023/10/15 04:32:22;;;;;;;0.00;0.00;;;7.60;83.20;;;;;;5061714;28;20120;-66
2023/10/15 04:34:51;;;;;;;0.00;0.00;;;7.30;83.70;;;;;;5070772;28;20497;-66
2023/10/15 04:37:20;;;;;;;0.03;0.03;;;7.20;84.00;;;;;;5070654;28;20051;-67
2023/10/15 04:39:53;;;;;;;0.00;0.00;;;7.10;84.80;;;;;;5066338;28;20504;-66
2023/10/15 04:42:30;;;;;;;0.00;0.00;;;7.00;85.10;;;;;;5070264;28;20116;-66
2023/10/15 04:44:55;;;;;;;0.00;0.00;;;7.00;85.80;;;;;;5066387;28;20056;-66
2023/10/15 04:47:38;;;;;;;0.38;0.38;;;7.00;85.50;;;;;;5069990;28;20055;-66
2023/10/15 04:50:14;;;;;;;0.00;0.00;;;7.00;85.50;;;;;;5064842;28;20041;-65
2023/10/15 04:52:41;;;;;;;0.00;0.00;;;7.00;85.30;;;;;;5067016;28;20060;-66
2023/10/15 04:55:07;;;;;;;0.03;0.03;;;7.00;85.10;;;;;;5069112;28;20770;-65
2023/10/15 04:57:33;;;;;;;0.00;0.00;;;7.10;84.80;;;;;;5070193;28;20111;-66
2023/10/15 04:59:59;;;;;;;0.00;0.00;;;7.10;84.90;;;;;;5069267;28;20119;-66
2023/10/15 05:02:24;;;;;;;0.10;0.10;;;7.10;84.70;;;;;;5054010;28;20060;-66
2023/10/15 05:04:50;;;;;;;0.00;0.00;;;7.20;84.60;;;;;;5059838;28;20464;-66
2023/10/15 05:07:16;;;;;;;0.00;0.00;;;7.30;84.40;;;;;;5070143;28;20059;-66
2023/10/15 05:09:44;;;;;;;0.00;0.00;;;7.30;84.10;;;;;;5070028;28;20040;-66
2023/10/15 05:12:10;;;;;;;0.00;0.00;;;7.30;84.10;;;;;;5068854;28;20381;-67
2023/10/15 05:14:36;;;;;;;0.00;0.00;;;7.40;84.00;;;;;;5069647;28;20045;-65
2023/10/15 05:17:01;;;;;;;0.00;0.00;;;7.40;84.00;;;;;;5068936;28;20043;-66
2023/10/15 05:19:27;;;;;;;0.00;0.00;;;7.40;83.30;;;;;;5069352;28;20084;-66
2023/10/15 05:21:53;;;;;;;0.00;0.00;;;7.40;84.00;;;;;;5069801;28;20067;-66
2023/10/15 05:24:19;;;;;;;0.00;0.00;;;7.30;84.50;;;;;;5068908;28;20052;-66
2023/10/15 05:26:46;;;;;;;0.00;0.00;;;7.20;85.30;;;;;;5069415;28;20048;-66
2023/10/15 05:29:13;;;;;;;0.00;0.00;;;7.10;85.60;;;;;;5057087;28;20686;-66
2023/10/15 05:31:41;;;;;;;0.00;0.00;;;7.10;86.30;;;;;;5069271;28;20048;-66
2023/10/15 05:34:08;;;;;;;0.00;0.00;;;7.00;86.50;;;;;;5061508;28;20524;-66
2023/10/15 05:36:36;;;;;;;0.00;0.00;;;7.00;86.50;;;;;;5053323;28;20102;-67
2023/10/15 05:39:08;;;;;;;0.00;0.00;;;7.10;86.40;;;;;;5069116;28;20056;-66
2023/10/15 05:41:34;;;;;;;0.00;0.00;;;7.10;86.30;;;;;;5069148;28;20056;-66
2023/10/15 05:44:00;;;;;;;0.00;0.00;;;7.10;86.40;;;;;;5058181;28;20484;-66
2023/10/15 05:46:27;;;;;;;0.10;0.10;;;7.20;86.40;;;;;;5055915;28;20075;-66
2023/10/15 05:48:53;;;;;;;0.00;0.00;;;7.10;86.30;;;;;;5069182;28;20131;-66
2023/10/15 05:51:20;;;;;;;0.00;0.00;;;7.10;86.40;;;;;;5068771;28;20488;-66
2023/10/15 05:53:46;;;;;;;0.00;0.00;;;7.10;86.40;;;;;;5069181;28;20505;-66
2023/10/15 05:56:12;;;;;;;0.00;0.00;;;7.10;86.50;;;;;;5068503;28;20048;-66
2023/10/15 05:58:37;;;;;;;0.10;0.10;;;7.10;86.50;;;;;;5065979;28;20106;-67
2023/10/15 06:01:03;;;;;;;0.10;0.10;;;7.10;86.60;;;;;;5068385;28;20036;-66
2023/10/15 06:03:29;;;;;;;0.10;0.10;;;7.10;86.80;;;;;;5067244;28;20059;-65
2023/10/15 06:05:58;;;;;;;0.00;0.00;;;7.10;86.80;;;;;;5066462;28;20048;-66
2023/10/15 06:08:24;;;;;;;0.00;0.00;;;7.10;86.90;;;;;;5068124;28;20056;-66
2023/10/15 06:10:50;;;;;;;0.10;0.10;;;7.00;87.20;;;;;;5067613;28;20044;-67
2023/10/15 06:13:16;;;;;;;0.00;0.00;;;7.10;87.10;;;;;;5067061;28;20447;-68
2023/10/15 06:15:42;;;;;;;0.08;0.08;;;7.10;87.00;;;;;;5055320;28;20045;-67
2023/10/15 06:18:09;;;;;;;0.10;0.10;;;7.10;86.90;;;;;;5066718;28;20079;-66
2023/10/15 06:20:34;;;;;;;0.00;0.00;;;7.20;86.40;;;;;;5068024;28;20080;-67
2023/10/15 06:23:03;;;;;;;0.00;0.00;;;7.20;86.30;;;;;;5068007;28;20083;-66
2023/10/15 06:25:29;;;;;;;0.00;0.00;;;7.20;86.50;;;;;;5067498;28;21599;-66
2023/10/15 06:27:55;;;;;;;0.00;0.00;;;7.20;86.30;;;;;;5067457;28;20868;-65
2023/10/15 06:30:21;;;;;;;0.20;0.20;;;7.30;86.10;;;;;;5066522;28;20045;-66
2023/10/15 06:32:47;;;;;;;0.00;0.00;;;7.30;85.90;;;;;;5067421;28;20053;-67
2023/10/15 06:35:18;;;;;;;18.13;1.20;;;7.40;85.70;;;;;;5065564;28;20594;-66
2023/10/15 06:37:45;;;;;;;0.00;0.00;;;7.40;85.30;;;;;;5063475;28;20067;-66
2023/10/15 06:40:11;;;;;;;0.00;0.00;;;7.40;85.60;;;;;;5064967;28;20045;-65
2023/10/15 06:42:36;;;;;;;0.00;0.00;;;7.60;85.70;;;;;;5058573;28;20135;-66
2023/10/15 06:45:03;;;;;;;0.00;0.00;;;7.80;85.30;;;;;;5065141;28;20161;-66
2023/10/15 06:47:29;;;;;;;0.10;0.10;;;7.90;85.40;;;;;;5067244;28;20045;-66
2023/10/15 06:49:55;;;;;;;0.00;0.00;;;7.90;85.10;;;;;;5066924;28;20056;-66
2023/10/15 06:52:21;;;;;;;0.00;0.00;;;8.00;85.00;;;;;;5068153;28;20044;-66
2023/10/15 06:54:48;;;;;;;0.20;0.20;;;7.90;84.70;;;;;;5060322;28;20115;-65
2023/10/15 06:57:16;;;;;;;0.52;0.52;;;7.90;84.80;;;;;;5063470;28;20830;-66
2023/10/15 06:59:45;;;;;;;3.08;0.20;;;7.90;84.90;;;;;;5069438;28;20381;-66
2023/10/15 07:02:13;;;;;;;0.00;0.00;;;7.90;85.00;;;;;;5066148;28;20044;-66
2023/10/15 07:04:39;;;;;;;0.03;0.03;;;7.80;85.20;;;;;;5068608;28;20048;-65
2023/10/15 07:07:04;;;;;;;0.00;0.00;;;7.90;85.20;;;;;;5068620;28;20040;-66
2023/10/15 07:09:32;;;;;;;0.08;0.08;;;7.90;85.30;;;;;;5068834;28;20083;-66
2023/10/15 07:11:59;;;;;;;0.10;0.10;;;7.90;85.30;;;;;;5068800;28;20048;-66
2023/10/15 07:14:24;;;;;;;0.00;0.00;;;8.00;85.50;;;;;;5068284;28;20587;-67
2023/10/15 07:16:50;;;;;;;0.00;0.00;;;8.00;85.20;;;;;;5061936;28;20041;-67
2023/10/15 07:19:16;;;;;;;0.03;0.03;;;8.10;85.10;;;;;;5064652;28;20052;-67
2023/10/15 07:21:42;;;;;;;0.00;0.00;;;8.10;84.70;;;;;;5058595;28;20048;-66
2023/10/15 07:24:11;;;;;;;0.00;0.00;;;8.10;84.80;;;;;;5068678;28;20052;-65
2023/10/15 07:26:39;;;;;;;0.00;0.00;;;8.10;84.70;;;;;;5067700;28;20127;-66
2023/10/15 07:29:05;;;;;;;0.00;0.00;;;8.20;84.80;;;;;;5068080;28;20053;-65
2023/10/15 07:31:30;;;;;;;0.00;0.00;;;8.20;84.70;;;;;;5069145;28;20041;-66
2023/10/15 07:33:56;;;;;;;0.00;0.00;;;8.30;84.80;;;;;;5068761;28;20049;-66
2023/10/15 07:36:22;;;;;;;0.00;0.00;;;8.30;84.50;;;;;;5067353;28;20037;-66
2023/10/15 07:38:47;;;;;;;0.00;0.00;;;8.40;84.20;;;;;;5067248;28;20080;-66
2023/10/15 07:41:13;;;;;;;0.00;0.00;;;8.40;83.00;;;;;;5067267;28;20683;-66
2023/10/15 07:43:40;;;;;;;0.00;0.00;;;8.40;83.20;;;;;;5068177;28;20048;-66
2023/10/15 07:46:05;;;;;;;0.00;0.00;;;8.50;83.20;;;;;;5064560;28;20075;-66
2023/10/15 07:48:31;;;;;;;0.10;0.10;;;8.60;83.10;;;;;;5070220;28;20053;-67
2023/10/15 07:50:57;;;;;;;0.10;0.10;;;8.70;83.00;;;;;;5072426;28;20040;-66
2023/10/15 07:53:23;;;;;;;0.00;0.00;;;8.70;83.10;;;;;;5065366;28;20113;-66
2023/10/15 07:55:49;;;;;;;0.03;0.03;;;8.80;82.90;;;;;;5052021;28;20037;-66
2023/10/15 07:58:14;;;;;;;4.28;1.55;;;8.90;82.00;;;;;;5058678;28;20041;-66
2023/10/15 08:00:40;;;;;;;0.00;0.00;;;8.90;81.60;;;;;;5071597;28;20037;-66
2023/10/15 08:03:07;;;;;;;0.00;0.00;;;9.00;81.60;;;;;;5071753;28;20048;-66
2023/10/15 08:05:34;;;;;;;0.00;0.00;;;9.10;81.30;;;;;;5072051;28;20119;-67
2023/10/15 08:08:00;;;;;;;0.30;0.00;;;9.20;79.10;;;;;;5057911;28;20057;-67
2023/10/15 08:10:32;;;;;;;0.55;0.43;;;9.10;78.20;;;;;;5067411;28;20040;-65
2023/10/15 08:12:58;;;;;;;0.00;0.00;;;8.90;78.50;;;;;;5058185;28;20057;-65
2023/10/15 08:15:24;;;;;;;0.00;0.00;;;8.70;78.30;;;;;;5068075;28;20072;-65
2023/10/15 08:17:50;;;;;;;0.00;0.00;;;8.60;78.90;;;;;;5069853;28;20072;-66
2023/10/15 08:20:15;;;;;;;0.20;0.20;;;8.60;79.20;;;;;;5071941;28;20033;-66
2023/10/15 08:22:44;;;;;;;0.00;0.00;;;8.60;79.80;;;;;;5070448;28;20072;-66
2023/10/15 08:25:13;;;;;;;0.63;0.63;;;8.50;80.10;;;;;;5071216;28;20508;-65
2023/10/15 08:27:45;;;;;;;0.00;0.00;;;8.50;80.00;;;;;;5069228;28;20055;-65
2023/10/15 08:30:12;;;;;;;0.10;0.10;;;8.40;80.20;;;;;;5068333;28;20123;-66
2023/10/15 08:32:41;;;;;;;0.05;0.05;;;8.40;79.60;;;;;;5069040;28;20603;-65
2023/10/15 08:35:10;;;;;;;0.00;0.00;;;8.50;80.10;;;;;;5071447;28;20040;-67
2023/10/15 08:37:54;;;;;;;0.00;0.00;;;8.60;80.20;;;;;;5069006;28;20071;-66
2023/10/15 08:40:20;;;;;;;0.03;0.03;;;8.60;80.10;;;;;;5067159;28;20036;-66
2023/10/15 08:42:59;;;;;;;1.38;0.85;;;8.60;80.50;;;;;;5070756;28;20058;-65
2023/10/15 08:45:26;;;;;;;0.00;0.00;;;8.80;79.80;;;;;;5066051;28;20427;-68
2023/10/15 08:47:53;;;;;;;0.00;0.00;;;8.80;78.70;;;;;;5069364;28;20052;-65
2023/10/15 08:50:22;;;;;;;0.03;0.03;;;9.10;79.40;;;;;;5071045;28;20052;-79
2023/10/15 08:52:52;;;;;;;0.00;0.00;;;9.30;80.40;;;;;;5091179;28;20062;-67
2023/10/15 08:55:22;;;;;;;0.00;0.00;;;10.20;85.90;;;;;;5071336;28;20116;-66
2023/10/15 08:57:54;;;;;;;0.00;0.00;;;10.10;80.60;;;;;;5064454;28;20119;-62
2023/10/15 09:00:31;;;;;;;0.00;0.00;;;10.10;77.90;;;;;;5064304;28;20547;-62
2023/10/15 09:02:57;;;;;;;0.20;0.20;;;9.90;78.30;;;;;;5068981;28;20044;-62
2023/10/15 09:05:23;;;;;;;0.00;0.00;;;9.70;78.70;;;;;;5068339;28;20037;-62
2023/10/15 09:07:52;;;;;;;8.27;1.75;;;9.50;78.70;;;;;;5068988;28;20158;-66
2023/10/15 09:10:18;;;;;;;0.00;0.00;;;9.30;79.50;;;;;;5068589;28;20044;-65
2023/10/15 09:12:43;;;;;;;0.00;0.00;;;9.20;79.20;;;;;;5067380;28;20049;-66
2023/10/15 09:15:16;;;;;;;0.08;0.08;;;9.10;79.10;;;;;;5058705;28;20125;-66
2023/10/15 09:17:49;;;;;;;0.00;0.00;;;9.10;78.40;;;;;;5068261;28;20036;-66
2023/10/15 09:20:17;;;;;;;0.10;0.10;;;9.30;79.40;;;;;;5062905;28;20037;-68
2023/10/15 09:22:44;;;;;;;0.00;0.00;;;9.50;79.50;;;;;;5065521;28;20051;-69
2023/10/15 09:25:14;;;;;;;0.00;0.00;;;9.40;76.10;;;;;;5067626;28;20711;-68
2023/10/15 09:27:45;;;;;;;0.00;0.00;;;9.50;77.20;;;;;;5068692;28;20611;-68
2023/10/15 09:30:18;;;;;;;0.00;0.00;;;9.40;76.50;;;;;;5068648;28;20055;-67
2023/10/15 09:32:46;;;;;;;0.00;0.00;;;9.50;77.20;;;;;;5066970;28;20054;-67
2023/10/15 09:35:16;;;;;;;0.00;0.00;;;9.50;77.20;;;;;;5066208;28;20511;-68
2023/10/15 09:37:41;;;;;;;0.00;0.00;;;9.60;77.80;;;;;;5068829;28;20040;-68
2023/10/15 09:40:20;;;;;;;0.10;0.10;;;9.70;78.60;;;;;;5065110;28;20060;-68
2023/10/15 09:42:49;;;;;;;0.00;0.00;;;9.90;77.90;;;;;;5065476;28;20044;-68
2023/10/15 09:45:18;;;;;;;0.00;0.00;;;10.00;73.60;;;;;;5068337;28;20094;-69
2023/10/15 09:47:48;;;;;;;0.00;0.00;;;10.20;73.40;;;;;;5069081;28;20044;-68
2023/10/15 09:50:20;;;;;;;0.00;0.00;;;10.40;73.90;;;;;;5068668;28;20063;-69
2023/10/15 09:52:55;;;;;;;0.00;0.00;;;10.60;73.70;;;;;;5067986;28;20089;-68
2023/10/15 09:55:28;;;;;;;0.22;0.22;;;10.60;74.00;;;;;;5067640;28;20111;-68
2023/10/15 09:57:56;;;;;;;0.57;0.57;;;10.50;74.30;;;;;;5059965;28;20037;-68
2023/10/15 10:00:59;;;;;;;0.20;0.20;;;10.50;73.90;;;;;;5067778;28;20052;-68
2023/10/15 10:03:57;;;;;;;0.10;0.10;;;10.30;72.20;;;;;;5066329;28;20036;-68
2023/10/15 10:06:47;;;;;;;0.00;0.00;;;10.10;73.10;;;;;;5048593;28;20110;-68
2023/10/15 10:09:40;;;;;;;0.00;0.00;;;10.00;73.30;;;;;;5065803;28;20678;-69
2023/10/15 10:12:26;;;;;;;0.00;0.00;;;10.00;72.90;;;;;;5066366;28;20040;-69
2023/10/15 10:14:58;;;;;;;0.00;0.00;;;10.10;71.70;;;;;;5066594;28;20057;-69
2023/10/15 10:17:25;;;;;;;;;;;10.20;72.70;;;;;;5068342;28;20075;-68
2023/10/15 10:19:52;;;;;;;0.10;0.10;;;10.30;73.20;;;;;;5065443;28;19927;-68
2023/10/15 10:22:23;;;;;;;0.00;0.00;;;10.50;74.00;;;;;;5066356;28;20052;-70
2023/10/15 10:24:50;;;;;;;0.00;0.00;;;10.60;73.30;;;;;;5063531;28;20049;-70
2023/10/15 10:27:17;;;;;;;0.00;0.00;;;10.60;73.40;;;;;;5067356;28;20045;-68
2023/10/15 10:29:53;;;;;;;0.00;0.00;;;10.60;73.40;;;;;;5066985;28;20036;-69
2023/10/15 10:32:20;;;;;;;0.20;0.20;;;10.60;75.50;;;;;;5065749;28;20052;-69
2023/10/15 10:35:06;;;;;;;0.00;0.00;;;10.90;77.60;;;;;;5065959;28;20071;-66
2023/10/15 10:37:32;;;;;;;0.00;0.00;;;10.80;74.20;;;;;;5067536;28;20049;-65
2023/10/15 10:39:59;;;;;;;0.00;0.00;;;10.70;73.80;;;;;;5068209;28;20060;-66
2023/10/15 10:42:26;;;;;;;0.00;0.00;;;10.60;73.60;;;;;;5068606;28;20094;-65
2023/10/15 10:44:56;;;;;;;0.00;0.00;;;10.60;75.20;;;;;;5068661;28;20049;-66
2023/10/15 10:47:24;;;;;;;0.00;0.00;;;10.60;73.90;;;;;;5065472;28;20040;-66
2023/10/15 10:49:55;;;;;;;0.00;0.00;;;10.70;73.50;;;;;;5059660;28;20063;-66
2023/10/15 10:52:28;;;;;;;0.10;0.10;;;10.80;73.60;;;;;;5062976;28;20404;-69
2023/10/15 10:54:56;;;;;;;0.10;0.10;;;10.80;73.40;;;;;;5066212;28;20682;-69
2023/10/15 10:57:27;;;;;;;0.00;0.00;;;10.90;70.20;;;;;;5056601;28;20055;-68
2023/10/15 10:59:54;;;;;;;0.00;0.00;;;10.90;71.40;;;;;;5047156;28;20672;-68
2023/10/15 11:02:20;;;;;;;0.00;0.00;;;10.80;68.80;;;;;;5052649;28;20283;-69
2023/10/15 11:04:47;;;;;;;0.00;0.00;;;10.70;68.80;;;;;;5067322;28;20052;-69
2023/10/15 11:07:14;;;;;;;0.05;0.05;;;10.60;67.60;;;;;;5067688;28;20041;-70
2023/10/15 11:09:40;;;;;;;0.00;0.00;;;10.60;67.60;;;;;;5067304;28;20067;-68
2023/10/15 11:12:07;;;;;;;0.00;0.00;;;10.60;68.70;;;;;;5068263;28;20501;-68
2023/10/15 11:14:33;;;;;;;0.00;0.00;;;10.60;69.70;;;;;;5067440;28;20051;-68
2023/10/15 11:16:58;;;;;;;0.00;0.00;;;10.60;69.60;;;;;;5066538;28;20044;-68
2023/10/15 11:19:25;;;;;;;0.05;0.05;;;10.70;69.60;;;;;;5058918;28;20072;-67
2023/10/15 11:21:52;;;;;;;0.00;0.00;;;10.90;70.00;;;;;;5061006;28;20059;-68
2023/10/15 11:24:20;;;;;;;0.25;0.25;;;10.90;69.40;;;;;;5062996;28;20032;-68
2023/10/15 11:26:46;;;;;;;0.00;0.00;;;10.90;69.50;;;;;;5064134;28;20524;-68
2023/10/15 11:29:14;;;;;;;0.00;0.00;;;11.00;72.00;;;;;;5059679;28;20552;-67
2023/10/15 11:31:44;;;;;;;0.00;0.00;;;11.00;70.10;;;;;;5072258;28;20053;-68
2023/10/15 11:34:16;;;;;;;0.00;0.00;;;10.90;70.90;;;;;;5071927;28;20052;-68
2023/10/15 11:36:48;;;;;;;0.00;0.00;;;10.90;70.20;;;;;;5071483;28;20174;-67
2023/10/15 11:39:25;;;;;;;0.00;0.00;;;10.90;70.50;;;;;;5071916;28;20049;-68
2023/10/15 11:41:57;;;;;;;0.00;0.00;;;10.90;69.30;;;;;;5057764;28;20037;-67
2023/10/15 11:44:30;;;;;;;0.10;0.10;;;10.90;70.20;;;;;;5051955;28;20144;-68
2023/10/15 11:46:57;;;;;;;0.00;0.00;;;11.00;71.10;;;;;;5070847;28;20045;-67
2023/10/15 11:49:24;;;;;;;0.00;0.00;;;11.10;71.50;;;;;;5071256;28;20127;-68
2023/10/15 11:51:51;;;;;;;0.00;0.00;;;11.30;70.10;;;;;;5061686;28;20386;-67
2023/10/15 11:54:23;;;;;;;12.52;2.63;;;11.40;69.40;;;;;;5051048;28;20064;-67
2023/10/15 11:56:50;;;;;;;0.00;0.00;;;11.40;68.10;;;;;;5069591;28;20072;-68
2023/10/15 11:59:16;;;;;;;0.00;0.00;;;11.00;66.30;;;;;;5071254;28;20086;-68
2023/10/15 12:01:44;;;;;;;0.00;0.00;;;10.70;68.00;;;;;;5070431;28;20147;-67
2023/10/15 12:04:11;;;;;;;0.00;0.00;;;10.60;69.80;;;;;;5071299;28;20158;-67
2023/10/15 12:06:38;;;;;;;0.00;0.00;;;10.50;70.50;;;;;;5062370;28;20083;-67
2023/10/15 12:09:06;;;;;;;0.00;0.00;;;10.50;71.40;;;;;;5051243;28;20138;-68
2023/10/15 12:11:33;;;;;;;0.00;0.00;;;10.60;72.10;;;;;;5049883;28;20053;-67
2023/10/15 12:13:59;;;;;;;0.15;0.15;;;10.70;72.30;;;;;;5054781;28;20051;-68
2023/10/15 12:16:24;;;;;;;0.28;0.28;;;10.90;71.80;;;;;;5071350;28;20419;-68
2023/10/15 12:18:50;;;;;;;0.00;0.00;;;11.00;70.90;;;;;;5067333;28;20049;-68
2023/10/15 12:21:16;;;;;;;0.00;0.00;;;11.10;71.40;;;;;;5053959;28;20067;-68
2023/10/15 12:23:43;;;;;;;0.00;0.00;;;11.30;68.90;;;;;;5051512;28;20052;-67
2023/10/15 12:26:09;;;;;;;0.00;0.00;;;11.40;64.50;;;;;;5058159;28;20067;-67
2023/10/15 12:28:43;;;;;;;0.57;0.57;;;11.60;63.00;;;;;;5062029;28;20500;-68
2023/10/15 12:31:09;;;;;;;0.00;0.00;;;11.60;62.50;;;;;;5050689;28;20052;-69
2023/10/15 12:33:34;;;;;;;0.00;0.00;;;11.60;64.20;;;;;;5051137;28;20071;-67
2023/10/15 12:36:00;;;;;;;0.00;0.00;;;11.50;64.90;;;;;;5070173;28;20044;-66
2023/10/15 12:38:31;;;;;;;0.00;0.00;;;11.50;63.30;;;;;;5069900;28;20185;-67
2023/10/15 12:40:59;;;;;;;0.00;0.00;;;11.60;63.30;;;;;;5057473;28;20418;-67
2023/10/15 12:43:26;;;;;;;0.00;0.00;;;11.60;64.10;;;;;;5050790;28;20045;-67
2023/10/15 12:45:53;;;;;;;0.00;0.00;;;11.60;63.60;;;;;;5050406;28;20068;-67
2023/10/15 12:48:20;;;;;;;0.00;0.00;;;11.50;64.20;;;;;;5058494;28;20041;-68
2023/10/15 12:50:48;;;;;;;0.00;0.00;;;11.50;64.30;;;;;;5068115;28;20047;-69
2023/10/15 12:53:15;;;;;;;0.00;0.00;;;11.60;63.80;;;;;;5056847;28;20169;-68
2023/10/15 12:55:41;;;;;;;0.15;0.15;;;11.60;62.40;;;;;;5057481;28;20048;-68
2023/10/15 12:58:09;;;;;;;0.00;0.00;;;11.60;60.70;;;;;;5069299;28;20055;-68
2023/10/15 13:00:39;;;;;;;0.00;0.00;;;11.60;60.40;;;;;;5059333;28;20471;-68
2023/10/15 13:03:05;;;;;;;0.05;0.05;;;11.60;60.20;;;;;;5049028;28;20132;-68
2023/10/15 13:05:31;;;;;;;0.00;0.00;;;11.70;61.10;;;;;;5049904;28;20131;-69
2023/10/15 13:07:57;;;;;;;0.00;0.00;;;11.70;61.90;;;;;;5050805;28;20084;-68
2023/10/15 13:10:22;;;;;;;0.00;0.00;;;11.70;62.90;;;;;;5051022;28;20087;-69
2023/10/15 13:12:50;;;;;;;8.90;2.63;;;11.90;64.10;;;;;;5061335;28;20044;-68
2023/10/15 13:15:18;;;;;;;3.38;3.10;;;11.90;63.90;;;;;;5069474;28;20401;-69